createdAt,value
2022-10-06T09:48:47.542Z,2.30
2022-10-06T09:51:18.165Z,2.00
2022-10-06T09:54:10.949Z,2.80
2022-10-06T09:56:47.130Z,2.45
2022-10-06T09:59:40.692Z,4.03
2022-10-06T10:02:21.700Z,3.60
2022-10-06T10:04:55.652Z,3.15
2022-10-06T10:07:26.201Z,4.00
2022-10-06T10:10:19.367Z,2.72
2022-10-06T10:12:57.609Z,2.65
2022-10-06T10:15:33.898Z,1.50
2022-10-06T10:18:10.941Z,1.25
2022-10-06T10:20:50.486Z,1.58
2022-10-06T10:23:31.606Z,1.42
2022-10-06T10:26:20.140Z,1.35
2022-10-06T10:29:15.055Z,1.27
2022-10-06T10:31:50.581Z,1.63
2022-10-06T10:34:50.487Z,1.75
2022-10-06T10:37:47.885Z,1.63
2022-10-06T10:40:45.472Z,1.58
2022-10-06T10:43:29.394Z,1.52
2022-10-06T10:46:02.758Z,1.83
2022-10-06T10:48:55.791Z,2.00
2022-10-06T10:51:32.033Z,1.75
2022-10-06T10:54:03.215Z,1.60
2022-10-06T10:56:32.737Z,1.60
2022-10-06T10:59:21.923Z,1.42
2022-10-06T11:01:58.950Z,1.65
2022-10-06T11:04:25.917Z,1.70
2022-10-06T11:07:03.138Z,1.38
2022-10-06T11:10:17.932Z,1.95
2022-10-06T11:12:49.880Z,2.15
2022-10-06T11:15:51.331Z,2.95
2022-10-06T11:19:02.504Z,2.65
2022-10-06T11:21:46.848Z,1.50
2022-10-06T11:24:23.229Z,1.98
2022-10-06T11:27:08.192Z,1.40
2022-10-06T11:29:49.502Z,1.42
2022-10-06T11:32:22.100Z,1.55
2022-10-06T11:34:49.815Z,1.50
2022-10-06T11:37:39.470Z,1.00
2022-10-06T11:40:41.657Z,0.90
2022-10-06T11:43:14.103Z,1.58
2022-10-06T11:45:45.169Z,1.05
2022-10-06T11:48:27.429Z,1.90
2022-10-06T11:50:57.933Z,1.38
2022-10-06T11:53:39.623Z,1.67
2022-10-06T11:56:18.228Z,1.00
2022-10-06T11:58:50.656Z,1.55
2022-10-06T12:01:32.597Z,1.27
2022-10-06T12:04:19.516Z,1.10
2022-10-06T12:06:56.340Z,1.35
2022-10-06T12:09:25.837Z,1.52
2022-10-06T12:11:54.157Z,1.15
2022-10-06T12:16:32.505Z,0.98
2022-10-06T12:17:47.243Z,1.38
2022-10-06T12:20:29.835Z,1.38
2022-10-06T12:23:21.300Z,1.25
2022-10-06T12:26:00.009Z,1.60
2022-10-06T12:28:48.251Z,1.50
2022-10-06T12:31:37.349Z,1.20
2022-10-06T12:34:24.108Z,1.27
2022-10-06T12:37:10.655Z,1.80
2022-10-06T12:39:37.238Z,1.45
2022-10-06T12:42:17.084Z,1.70
2022-10-06T12:44:51.469Z,1.52
2022-10-06T12:47:30.096Z,1.27
2022-10-06T12:50:26.657Z,1.35
2022-10-06T12:53:05.794Z,2.03
2022-10-06T12:56:00.846Z,1.30
2022-10-06T12:58:29.771Z,1.55
2022-10-06T13:01:02.664Z,1.30
2022-10-06T13:03:30.058Z,1.63
2022-10-06T13:06:03.264Z,1.40
2022-10-06T13:08:37.780Z,1.30
2022-10-06T13:11:27.002Z,1.02
2022-10-06T13:13:55.970Z,1.20
2022-10-06T13:16:29.556Z,1.55
2022-10-06T13:18:58.844Z,1.65
2022-10-06T13:21:29.252Z,1.13
2022-10-06T13:23:56.265Z,1.00
2022-10-06T13:26:26.706Z,1.48
2022-10-06T13:28:58.549Z,1.15
2022-10-06T13:31:30.359Z,1.60
2022-10-06T13:34:12.147Z,1.33
2022-10-06T13:36:41.064Z,1.08
2022-10-06T13:39:23.320Z,1.08
2022-10-06T13:42:00.345Z,1.00
2022-10-06T13:44:41.980Z,1.27
2022-10-06T13:47:17.989Z,1.00
2022-10-06T13:50:01.881Z,1.02
2022-10-06T13:52:36.173Z,1.10
2022-10-06T13:55:04.865Z,1.25
2022-10-06T13:57:34.526Z,1.30
2022-10-06T14:00:28.237Z,1.15
2022-10-06T14:03:09.083Z,1.42
2022-10-06T14:05:41.058Z,0.82
2022-10-06T14:08:10.509Z,1.10
2022-10-06T14:10:40.071Z,1.50
2022-10-06T14:13:12.898Z,1.02
2022-10-06T14:15:50.112Z,1.23
2022-10-06T14:18:23.649Z,0.88
2022-10-06T14:20:53.253Z,1.30
2022-10-06T14:23:48.497Z,1.08
2022-10-06T14:26:17.298Z,0.95
2022-10-06T14:28:51.425Z,1.10
2022-10-06T14:31:18.713Z,1.30
2022-10-06T14:33:47.876Z,1.02
2022-10-06T14:36:23.579Z,1.40
2022-10-06T14:38:51.721Z,1.00
2022-10-06T14:41:27.941Z,1.10
2022-10-06T14:44:01.445Z,1.42
2022-10-06T14:46:29.117Z,1.13
2022-10-06T14:48:57.273Z,1.02
2022-10-06T14:51:25.505Z,0.77
2022-10-06T14:53:54.202Z,1.23
2022-10-06T14:56:23.672Z,1.10
2022-10-06T14:58:51.179Z,1.45
2022-10-06T15:01:20.246Z,0.85
2022-10-06T15:03:55.112Z,1.05
2022-10-06T15:06:40.342Z,0.85
2022-10-06T15:09:07.484Z,0.82
2022-10-06T15:11:34.775Z,1.00
2022-10-06T15:14:02.413Z,1.10
2022-10-06T15:16:30.283Z,1.00
2022-10-06T15:18:59.234Z,1.08
2022-10-06T15:21:27.113Z,1.00
2022-10-06T15:24:01.888Z,1.08
2022-10-06T15:26:47.923Z,1.08
2022-10-06T15:29:15.215Z,1.20
2022-10-06T15:31:52.850Z,1.10
2022-10-06T15:34:23.466Z,1.08
2022-10-06T15:36:52.350Z,1.83
2022-10-06T15:39:21.468Z,1.58
2022-10-06T15:41:48.492Z,1.10
2022-10-06T15:44:15.911Z,1.23
2022-10-06T15:46:55.998Z,0.90
2022-10-06T15:49:24.590Z,0.85
2022-10-06T15:51:54.037Z,1.42
2022-10-06T15:54:23.724Z,1.45
2022-10-06T15:56:55.161Z,0.93
2022-10-06T15:59:24.044Z,1.23
2022-10-06T16:01:55.994Z,0.80
2022-10-06T16:04:33.124Z,1.00
2022-10-06T16:07:00.424Z,1.08
2022-10-06T16:09:29.797Z,1.05
2022-10-06T16:11:57.856Z,1.30
2022-10-06T16:14:25.363Z,1.20
2022-10-06T16:16:52.600Z,1.23
2022-10-06T16:19:20.054Z,1.30
2022-10-06T16:21:48.921Z,1.00
2022-10-06T16:24:19.545Z,1.13
2022-10-06T16:26:47.090Z,1.23
2022-10-06T16:29:18.576Z,1.02
2022-10-06T16:31:45.471Z,1.40
2022-10-06T16:34:12.525Z,1.40
2022-10-06T16:36:39.461Z,1.30
2022-10-06T16:39:08.065Z,1.45
2022-10-06T16:41:34.756Z,1.30
2022-10-06T16:44:01.383Z,1.10
2022-10-06T16:46:29.748Z,1.00
2022-10-06T16:48:57.756Z,1.10
2022-10-06T16:51:25.729Z,1.10
2022-10-06T16:53:57.975Z,1.42
2022-10-06T16:56:30.521Z,1.30
2022-10-06T16:58:59.099Z,1.65
2022-10-06T17:01:30.830Z,1.90
2022-10-06T17:04:15.238Z,1.70
2022-10-06T17:06:44.390Z,1.58
2022-10-06T17:09:14.208Z,2.53
2022-10-06T17:11:45.469Z,2.28
2022-10-06T17:14:12.432Z,1.67
2022-10-06T17:16:41.355Z,2.22
2022-10-06T17:19:08.086Z,2.83
2022-10-06T17:21:55.695Z,2.75
2022-10-06T17:24:22.965Z,3.92
2022-10-06T17:26:49.986Z,2.42
2022-10-06T17:29:19.343Z,2.80
2022-10-06T17:31:47.086Z,2.72
2022-10-06T17:34:22.457Z,2.08
2022-10-06T17:36:51.536Z,3.10
2022-10-06T17:39:21.345Z,2.55
2022-10-06T17:41:50.397Z,2.95
2022-10-06T17:44:22.308Z,2.90
2022-10-06T17:46:50.916Z,4.20
2022-10-06T17:49:20.535Z,4.22
2022-10-06T17:51:50.131Z,3.60
2022-10-06T17:54:19.949Z,2.70
2022-10-06T17:56:48.988Z,2.22
2022-10-06T17:59:31.116Z,2.00
2022-10-06T18:02:00.477Z,1.85
2022-10-06T18:04:27.485Z,2.35
2022-10-06T18:06:54.537Z,1.60
2022-10-06T18:09:22.218Z,1.92
2022-10-06T18:11:54.486Z,2.50
2022-10-06T18:14:22.659Z,2.00
2022-10-06T18:16:56.271Z,1.77
2022-10-06T18:19:26.743Z,1.65
2022-10-06T18:21:56.495Z,1.73
2022-10-06T18:24:25.629Z,1.85
2022-10-06T18:26:53.992Z,2.10
2022-10-06T18:29:23.238Z,1.50
2022-10-06T18:31:52.039Z,1.98
2022-10-06T18:37:05.994Z,3.35
2022-10-06T18:39:33.382Z,3.72
2022-10-06T18:42:02.845Z,3.67
2022-10-06T18:44:48.615Z,1.45
2022-10-06T18:47:34.137Z,1.30
2022-10-06T18:50:00.817Z,1.83
2022-10-06T18:52:27.433Z,2.00
2022-10-06T18:54:54.037Z,1.80
2022-10-06T18:57:25.129Z,1.67
2022-10-06T18:59:54.351Z,1.98
2022-10-06T19:02:21.076Z,1.90
2022-10-06T19:04:48.250Z,2.10
2022-10-06T19:07:15.071Z,2.13
2022-10-06T19:09:46.505Z,2.38
2022-10-06T19:12:13.811Z,2.03
2022-10-06T19:14:46.931Z,2.33
2022-10-06T19:17:14.873Z,2.50
2022-10-06T19:19:50.849Z,2.28
2022-10-06T19:22:19.819Z,1.63
2022-10-06T19:24:48.382Z,2.10
2022-10-06T19:27:20.703Z,1.35
2022-10-06T19:29:54.222Z,1.85
2022-10-06T19:32:32.605Z,1.90
2022-10-06T19:34:59.502Z,1.65
2022-10-06T19:37:30.093Z,1.95
2022-10-06T19:39:57.201Z,2.40
2022-10-06T19:42:42.512Z,1.70
2022-10-06T19:45:11.501Z,2.00
2022-10-06T19:47:38.338Z,1.60
2022-10-06T19:50:11.296Z,1.92
2022-10-06T19:52:39.454Z,1.70
2022-10-06T19:55:06.378Z,1.80
2022-10-06T19:57:33.393Z,2.47
2022-10-06T20:00:00.139Z,2.45
2022-10-06T20:02:28.509Z,3.05
2022-10-06T20:04:55.119Z,3.08
2022-10-06T20:07:25.266Z,3.08
2022-10-06T20:09:51.833Z,3.15
2022-10-06T20:12:22.260Z,2.90
2022-10-06T20:14:51.452Z,3.00
2022-10-06T20:17:18.111Z,2.90
2022-10-06T20:19:45.992Z,2.60
2022-10-06T20:22:13.241Z,3.03
2022-10-06T20:24:39.801Z,3.13
2022-10-06T20:27:06.382Z,3.28
2022-10-06T20:29:34.451Z,3.13
2022-10-06T20:32:01.012Z,2.65
2022-10-06T20:34:32.489Z,2.60
2022-10-06T20:37:04.485Z,2.30
2022-10-06T20:39:51.663Z,2.33
2022-10-06T20:42:19.863Z,2.40
2022-10-06T20:44:46.680Z,2.50
2022-10-06T20:47:13.999Z,2.50
2022-10-06T20:49:42.298Z,2.47
2022-10-06T20:52:09.672Z,2.88
2022-10-06T20:54:37.141Z,2.50
2022-10-06T20:57:05.729Z,2.70
2022-10-06T20:59:35.166Z,1.80
2022-10-06T21:02:02.784Z,2.67
2022-10-06T21:04:29.947Z,2.20
2022-10-06T21:06:57.334Z,1.95
2022-10-06T21:09:24.625Z,2.75
2022-10-06T21:11:51.475Z,3.08
2022-10-06T21:14:18.299Z,2.35
2022-10-06T21:16:47.207Z,2.80
2022-10-06T21:19:16.682Z,2.15
2022-10-06T21:21:46.011Z,3.10
2022-10-06T21:24:12.880Z,2.50
2022-10-06T21:26:42.238Z,2.80
2022-10-06T21:29:11.495Z,2.00
2022-10-06T21:31:38.194Z,2.50
2022-10-06T21:34:05.124Z,2.15
2022-10-06T21:36:32.096Z,2.33
2022-10-06T21:39:01.313Z,2.97
2022-10-06T21:41:35.963Z,2.75
2022-10-06T21:44:13.904Z,2.47
2022-10-06T21:46:52.191Z,2.90
2022-10-06T21:49:21.076Z,2.58
2022-10-06T21:51:50.366Z,2.22
2022-10-06T21:54:17.595Z,2.42
2022-10-06T21:56:44.556Z,2.58
2022-10-06T21:59:11.973Z,2.83
2022-10-06T22:01:41.187Z,2.70
2022-10-06T22:04:08.432Z,2.28
2022-10-06T22:06:36.548Z,2.42
2022-10-06T22:09:05.505Z,2.40
2022-10-06T22:11:35.232Z,2.28
2022-10-06T22:14:05.229Z,2.53
2022-10-06T22:16:33.810Z,1.98
2022-10-06T22:19:03.373Z,2.50
2022-10-06T22:21:33.011Z,2.38
2022-10-06T22:24:02.516Z,2.03
2022-10-06T22:26:30.680Z,2.47
2022-10-06T22:28:58.440Z,2.25
2022-10-06T22:31:26.744Z,2.10
2022-10-06T22:33:57.727Z,2.92
2022-10-06T22:36:26.460Z,2.08
2022-10-06T22:38:53.782Z,2.38
2022-10-06T22:41:20.590Z,2.22
2022-10-06T22:43:47.502Z,1.75
2022-10-06T22:46:14.903Z,2.17
2022-10-06T22:48:41.885Z,2.80
2022-10-06T22:51:08.696Z,2.67
2022-10-06T22:53:35.825Z,2.30
2022-10-06T22:56:03.752Z,2.28
2022-10-06T22:58:30.758Z,2.35
2022-10-06T23:00:57.573Z,1.60
2022-10-06T23:03:25.770Z,2.10
2022-10-06T23:05:56.903Z,2.30
2022-10-06T23:08:23.913Z,1.95
2022-10-06T23:10:51.529Z,1.85
2022-10-06T23:13:18.752Z,2.53
2022-10-06T23:15:45.686Z,1.83
2022-10-06T23:18:12.747Z,2.25
2022-10-06T23:20:39.399Z,1.77
2022-10-06T23:23:06.338Z,1.90
2022-10-06T23:25:36.775Z,2.30
2022-10-06T23:28:03.651Z,2.38
2022-10-06T23:30:30.410Z,2.38
2022-10-06T23:32:57.084Z,2.15
2022-10-06T23:35:23.857Z,2.28
2022-10-06T23:37:50.527Z,1.90
2022-10-06T23:40:17.246Z,2.70
2022-10-06T23:42:44.013Z,2.33
2022-10-06T23:45:10.810Z,2.72
2022-10-06T23:47:37.464Z,2.15
2022-10-06T23:50:04.484Z,2.00
2022-10-06T23:52:31.322Z,2.63
2022-10-06T23:54:58.502Z,1.95
2022-10-06T23:57:25.155Z,2.20
2022-10-06T23:59:51.811Z,2.05
